sensor_id;sensor_type;location;lat;lon;timestamp;temperature;humidity
11609;DHT22;5860;52.018;8.536;2022-12-07T00:01:24;6.10;99.90
11609;DHT22;5860;52.018;8.536;2022-12-07T00:03:53;6.20;99.90
11609;DHT22;5860;52.018;8.536;2022-12-07T00:06:20;6.20;99.90
11609;DHT22;5860;52.018;8.536;2022-12-07T00:08:47;6.20;99.90
11609;DHT22;5860;52.018;8.536;2022-12-07T00:11:17;6.20;99.90
11609;DHT22;5860;52.018;8.536;2022-12-07T00:13:44;6.20;99.90
11609;DHT22;5860;52.018;8.536;2022-12-07T00:16:17;6.30;99.90
11609;DHT22;5860;52.018;8.536;2022-12-07T00:18:47;6.30;99.90
11609;DHT22;5860;52.018;8.536;2022-12-07T00:21:27;6.30;99.90
11609;DHT22;5860;52.018;8.536;2022-12-07T00:23:55;6.40;99.90
11609;DHT22;5860;52.018;8.536;2022-12-07T00:26:31;6.40;99.90
11609;DHT22;5860;52.018;8.536;2022-12-07T00:29:03;6.40;99.90
11609;DHT22;5860;52.018;8.536;2022-12-07T00:31:35;6.40;99.90
11609;DHT22;5860;52.018;8.536;2022-12-07T00:34:06;6.40;99.90
11609;DHT22;5860;52.018;8.536;2022-12-07T00:36:33;6.40;99.90
11609;DHT22;5860;52.018;8.536;2022-12-07T00:39:00;6.40;99.90
11609;DHT22;5860;52.018;8.536;2022-12-07T00:41:27;6.40;99.90
11609;DHT22;5860;52.018;8.536;2022-12-07T00:43:55;6.40;99.90
11609;DHT22;5860;52.018;8.536;2022-12-07T00:46:22;6.50;99.90
11609;DHT22;5860;52.018;8.536;2022-12-07T00:48:50;6.50;99.90
11609;DHT22;5860;52.018;8.536;2022-12-07T00:51:19;6.50;99.90
11609;DHT22;5860;52.018;8.536;2022-12-07T00:53:46;6.50;99.90
11609;DHT22;5860;52.018;8.536;2022-12-07T00:56:22;6.50;99.90
11609;DHT22;5860;52.018;8.536;2022-12-07T00:58:54;6.50;99.90
11609;DHT22;5860;52.018;8.536;2022-12-07T01:01:21;6.50;99.90
11609;DHT22;5860;52.018;8.536;2022-12-07T01:03:48;6.50;99.90
11609;DHT22;5860;52.018;8.536;2022-12-07T01:06:17;6.60;99.90
11609;DHT22;5860;52.018;8.536;2022-12-07T01:08:45;6.60;99.90
11609;DHT22;5860;52.018;8.536;2022-12-07T01:11:14;6.60;99.90
11609;DHT22;5860;52.018;8.536;2022-12-07T01:13:41;6.60;99.90
11609;DHT22;5860;52.018;8.536;2022-12-07T01:16:11;6.60;99.90
11609;DHT22;5860;52.018;8.536;2022-12-07T01:18:38;6.60;99.90
11609;DHT22;5860;52.018;8.536;2022-12-07T01:21:15;6.60;99.90
11609;DHT22;5860;52.018;8.536;2022-12-07T01:23:43;6.60;99.90
11609;DHT22;5860;52.018;8.536;2022-12-07T01:26:13;6.60;99.90
11609;DHT22;5860;52.018;8.536;2022-12-07T01:28:40;6.60;99.90
11609;DHT22;5860;52.018;8.536;2022-12-07T01:31:11;6.60;99.90
11609;DHT22;5860;52.018;8.536;2022-12-07T01:33:39;6.60;99.90
11609;DHT22;5860;52.018;8.536;2022-12-07T01:36:23;6.60;99.90
11609;DHT22;5860;52.018;8.536;2022-12-07T01:38:53;6.60;99.90
11609;DHT22;5860;52.018;8.536;2022-12-07T01:41:24;6.50;99.90
11609;DHT22;5860;52.018;8.536;2022-12-07T01:44:08;6.40;99.90
11609;DHT22;5860;52.018;8.536;2022-12-07T01:46:35;6.40;99.90
11609;DHT22;5860;52.018;8.536;2022-12-07T01:49:08;6.30;99.90
11609;DHT22;5860;52.018;8.536;2022-12-07T01:51:37;6.40;99.90
11609;DHT22;5860;52.018;8.536;2022-12-07T01:54:08;6.40;99.90
11609;DHT22;5860;52.018;8.536;2022-12-07T01:56:37;6.30;99.90
11609;DHT22;5860;52.018;8.536;2022-12-07T01:59:05;6.30;99.90
11609;DHT22;5860;52.018;8.536;2022-12-07T02:01:32;6.30;99.90
11609;DHT22;5860;52.018;8.536;2022-12-07T02:03:59;6.30;99.90
11609;DHT22;5860;52.018;8.536;2022-12-07T02:06:26;6.30;99.90
11609;DHT22;5860;52.018;8.536;2022-12-07T02:08:53;6.30;99.90
11609;DHT22;5860;52.018;8.536;2022-12-07T02:11:20;6.30;99.90
11609;DHT22;5860;52.018;8.536;2022-12-07T02:13:47;6.30;99.90
11609;DHT22;5860;52.018;8.536;2022-12-07T02:22:33;6.10;99.90
11609;DHT22;5860;52.018;8.536;2022-12-07T02:27:52;5.90;99.90
11609;DHT22;5860;52.018;8.536;2022-12-07T02:30:23;5.90;99.90
11609;DHT22;5860;52.018;8.536;2022-12-07T02:33:08;5.90;99.90
11609;DHT22;5860;52.018;8.536;2022-12-07T02:35:40;5.80;99.90
11609;DHT22;5860;52.018;8.536;2022-12-07T02:38:31;5.90;99.90
11609;DHT22;5860;52.018;8.536;2022-12-07T02:41:12;5.90;99.90
11609;DHT22;5860;52.018;8.536;2022-12-07T02:43:46;6.00;99.90
11609;DHT22;5860;52.018;8.536;2022-12-07T02:46:21;6.00;99.90
11609;DHT22;5860;52.018;8.536;2022-12-07T02:48:50;5.90;99.90
11609;DHT22;5860;52.018;8.536;2022-12-07T02:51:18;5.90;99.90
11609;DHT22;5860;52.018;8.536;2022-12-07T02:53:45;5.90;99.90
11609;DHT22;5860;52.018;8.536;2022-12-07T02:56:44;6.00;99.90
11609;DHT22;5860;52.018;8.536;2022-12-07T03:09:57;5.80;99.90
11609;DHT22;5860;52.018;8.536;2022-12-07T03:12:35;5.70;99.90
11609;DHT22;5860;52.018;8.536;2022-12-07T03:15:13;5.70;99.90
11609;DHT22;5860;52.018;8.536;2022-12-07T03:17:42;5.70;99.90
11609;DHT22;5860;52.018;8.536;2022-12-07T03:20:12;5.70;99.90
11609;DHT22;5860;52.018;8.536;2022-12-07T03:22:41;5.60;99.90
11609;DHT22;5860;52.018;8.536;2022-12-07T03:25:12;5.70;99.90
11609;DHT22;5860;52.018;8.536;2022-12-07T03:27:44;5.60;99.90
11609;DHT22;5860;52.018;8.536;2022-12-07T03:30:13;5.60;99.90
11609;DHT22;5860;52.018;8.536;2022-12-07T03:33:00;5.60;99.90
11609;DHT22;5860;52.018;8.536;2022-12-07T03:35:42;5.60;99.90
11609;DHT22;5860;52.018;8.536;2022-12-07T03:43:21;5.60;99.90
11609;DHT22;5860;52.018;8.536;2022-12-07T03:46:30;5.60;99.90
11609;DHT22;5860;52.018;8.536;2022-12-07T03:56:44;5.40;99.90
11609;DHT22;5860;52.018;8.536;2022-12-07T04:02:03;5.50;99.90
11609;DHT22;5860;52.018;8.536;2022-12-07T04:04:31;5.60;99.90
11609;DHT22;5860;52.018;8.536;2022-12-07T04:06:57;5.50;99.90
11609;DHT22;5860;52.018;8.536;2022-12-07T04:09:24;5.50;99.90
11609;DHT22;5860;52.018;8.536;2022-12-07T04:11:51;5.50;99.90
11609;DHT22;5860;52.018;8.536;2022-12-07T04:14:18;5.50;99.90
11609;DHT22;5860;52.018;8.536;2022-12-07T04:19:18;5.50;99.90
11609;DHT22;5860;52.018;8.536;2022-12-07T04:21:46;5.50;99.90
11609;DHT22;5860;52.018;8.536;2022-12-07T04:24:14;5.50;99.90
11609;DHT22;5860;52.018;8.536;2022-12-07T04:26:42;5.50;99.90
11609;DHT22;5860;52.018;8.536;2022-12-07T04:29:10;5.50;99.90
11609;DHT22;5860;52.018;8.536;2022-12-07T04:31:37;5.50;99.90
11609;DHT22;5860;52.018;8.536;2022-12-07T04:34:04;5.40;99.90
11609;DHT22;5860;52.018;8.536;2022-12-07T04:36:32;5.40;99.90
11609;DHT22;5860;52.018;8.536;2022-12-07T04:38:59;5.40;99.90
11609;DHT22;5860;52.018;8.536;2022-12-07T04:41:27;5.30;99.90
11609;DHT22;5860;52.018;8.536;2022-12-07T04:43:59;5.30;99.90
11609;DHT22;5860;52.018;8.536;2022-12-07T04:46:28;5.20;99.90
11609;DHT22;5860;52.018;8.536;2022-12-07T04:48:55;5.30;99.90
11609;DHT22;5860;52.018;8.536;2022-12-07T04:51:24;5.30;99.90
11609;DHT22;5860;52.018;8.536;2022-12-07T04:53:51;5.20;99.90
11609;DHT22;5860;52.018;8.536;2022-12-07T04:56:18;5.20;99.90
11609;DHT22;5860;52.018;8.536;2022-12-07T04:58:46;5.20;99.90
11609;DHT22;5860;52.018;8.536;2022-12-07T05:01:15;5.20;99.90
11609;DHT22;5860;52.018;8.536;2022-12-07T05:03:42;5.20;99.90
11609;DHT22;5860;52.018;8.536;2022-12-07T05:06:10;5.20;99.90
11609;DHT22;5860;52.018;8.536;2022-12-07T05:08:39;5.20;99.90
11609;DHT22;5860;52.018;8.536;2022-12-07T05:11:07;5.30;99.90
11609;DHT22;5860;52.018;8.536;2022-12-07T05:13:35;5.20;99.90
11609;DHT22;5860;52.018;8.536;2022-12-07T05:16:02;5.30;99.90
11609;DHT22;5860;52.018;8.536;2022-12-07T05:18:29;5.20;99.90
11609;DHT22;5860;52.018;8.536;2022-12-07T05:20:56;5.20;99.90
11609;DHT22;5860;52.018;8.536;2022-12-07T05:23:26;5.20;99.90
11609;DHT22;5860;52.018;8.536;2022-12-07T05:25:53;5.20;99.90
11609;DHT22;5860;52.018;8.536;2022-12-07T05:28:20;5.20;99.90
11609;DHT22;5860;52.018;8.536;2022-12-07T05:30:46;5.20;99.90
11609;DHT22;5860;52.018;8.536;2022-12-07T05:33:13;5.50;99.90
11609;DHT22;5860;52.018;8.536;2022-12-07T05:35:40;5.20;99.90
11609;DHT22;5860;52.018;8.536;2022-12-07T05:38:07;5.10;99.90
11609;DHT22;5860;52.018;8.536;2022-12-07T05:40:34;5.10;99.90
11609;DHT22;5860;52.018;8.536;2022-12-07T05:43:01;5.10;99.90
11609;DHT22;5860;52.018;8.536;2022-12-07T05:45:30;5.20;99.90
11609;DHT22;5860;52.018;8.536;2022-12-07T05:47:57;5.10;99.90
11609;DHT22;5860;52.018;8.536;2022-12-07T05:50:24;5.00;99.90
11609;DHT22;5860;52.018;8.536;2022-12-07T05:52:51;5.00;99.90
11609;DHT22;5860;52.018;8.536;2022-12-07T05:55:18;4.90;99.90
11609;DHT22;5860;52.018;8.536;2022-12-07T05:57:45;4.90;99.90
11609;DHT22;5860;52.018;8.536;2022-12-07T06:00:32;4.90;99.90
11609;DHT22;5860;52.018;8.536;2022-12-07T06:02:59;4.90;99.90
11609;DHT22;5860;52.018;8.536;2022-12-07T06:05:26;4.80;99.90
11609;DHT22;5860;52.018;8.536;2022-12-07T06:07:53;4.80;99.90
11609;DHT22;5860;52.018;8.536;2022-12-07T06:10:20;4.80;99.90
11609;DHT22;5860;52.018;8.536;2022-12-07T06:12:49;4.80;99.90
11609;DHT22;5860;52.018;8.536;2022-12-07T06:15:16;4.80;99.90
11609;DHT22;5860;52.018;8.536;2022-12-07T06:17:43;4.80;99.90
11609;DHT22;5860;52.018;8.536;2022-12-07T06:20:10;4.80;99.90
11609;DHT22;5860;52.018;8.536;2022-12-07T06:22:37;4.80;99.90
11609;DHT22;5860;52.018;8.536;2022-12-07T06:25:05;4.70;99.90
11609;DHT22;5860;52.018;8.536;2022-12-07T06:27:34;4.70;99.90
11609;DHT22;5860;52.018;8.536;2022-12-07T06:30:03;4.60;99.90
11609;DHT22;5860;52.018;8.536;2022-12-07T06:32:33;4.60;99.90
11609;DHT22;5860;52.018;8.536;2022-12-07T06:35:00;4.60;99.90
11609;DHT22;5860;52.018;8.536;2022-12-07T06:37:27;4.60;99.90
11609;DHT22;5860;52.018;8.536;2022-12-07T06:39:54;4.60;99.90
11609;DHT22;5860;52.018;8.536;2022-12-07T06:42:22;4.70;99.90
11609;DHT22;5860;52.018;8.536;2022-12-07T06:44:49;4.70;99.90
11609;DHT22;5860;52.018;8.536;2022-12-07T06:47:15;4.70;99.90
11609;DHT22;5860;52.018;8.536;2022-12-07T06:50:03;4.60;99.90
11609;DHT22;5860;52.018;8.536;2022-12-07T06:52:30;4.60;99.90
11609;DHT22;5860;52.018;8.536;2022-12-07T06:54:57;4.60;99.90
11609;DHT22;5860;52.018;8.536;2022-12-07T06:57:25;4.60;99.90
11609;DHT22;5860;52.018;8.536;2022-12-07T06:59:52;4.60;99.90
11609;DHT22;5860;52.018;8.536;2022-12-07T07:02:19;4.60;99.90
11609;DHT22;5860;52.018;8.536;2022-12-07T07:04:46;4.50;99.90
11609;DHT22;5860;52.018;8.536;2022-12-07T07:07:12;4.50;99.90
11609;DHT22;5860;52.018;8.536;2022-12-07T07:09:39;4.50;99.90
11609;DHT22;5860;52.018;8.536;2022-12-07T07:12:06;4.50;99.90
11609;DHT22;5860;52.018;8.536;2022-12-07T07:14:33;4.50;99.90
11609;DHT22;5860;52.018;8.536;2022-12-07T07:17:00;4.40;99.90
11609;DHT22;5860;52.018;8.536;2022-12-07T07:19:27;4.40;99.90
11609;DHT22;5860;52.018;8.536;2022-12-07T07:21:54;4.50;99.90
11609;DHT22;5860;52.018;8.536;2022-12-07T07:24:24;4.50;99.90
11609;DHT22;5860;52.018;8.536;2022-12-07T07:26:50;4.60;99.90
11609;DHT22;5860;52.018;8.536;2022-12-07T07:29:20;4.40;99.90
11609;DHT22;5860;52.018;8.536;2022-12-07T07:31:47;4.50;99.90
11609;DHT22;5860;52.018;8.536;2022-12-07T07:34:14;4.40;99.90
11609;DHT22;5860;52.018;8.536;2022-12-07T07:36:41;5.10;99.90
11609;DHT22;5860;52.018;8.536;2022-12-07T07:39:09;4.30;99.90
11609;DHT22;5860;52.018;8.536;2022-12-07T07:41:36;4.30;99.90
11609;DHT22;5860;52.018;8.536;2022-12-07T07:44:02;4.40;99.90
11609;DHT22;5860;52.018;8.536;2022-12-07T07:46:29;4.40;99.90
11609;DHT22;5860;52.018;8.536;2022-12-07T07:48:57;4.50;99.90
11609;DHT22;5860;52.018;8.536;2022-12-07T07:51:24;4.50;99.90
11609;DHT22;5860;52.018;8.536;2022-12-07T07:53:51;4.50;99.90
11609;DHT22;5860;52.018;8.536;2022-12-07T07:56:18;4.60;99.90
11609;DHT22;5860;52.018;8.536;2022-12-07T07:58:52;4.50;99.90
11609;DHT22;5860;52.018;8.536;2022-12-07T08:01:18;4.50;99.90
11609;DHT22;5860;52.018;8.536;2022-12-07T08:03:49;4.60;99.90
11609;DHT22;5860;52.018;8.536;2022-12-07T08:06:16;4.50;99.90
11609;DHT22;5860;52.018;8.536;2022-12-07T08:08:42;4.50;99.90
11609;DHT22;5860;52.018;8.536;2022-12-07T08:11:12;4.50;99.90
11609;DHT22;5860;52.018;8.536;2022-12-07T08:13:38;4.50;99.90
11609;DHT22;5860;52.018;8.536;2022-12-07T08:16:08;4.60;99.90
11609;DHT22;5860;52.018;8.536;2022-12-07T08:18:36;4.60;99.90
11609;DHT22;5860;52.018;8.536;2022-12-07T08:21:05;4.70;99.90
11609;DHT22;5860;52.018;8.536;2022-12-07T08:23:32;4.80;99.90
11609;DHT22;5860;52.018;8.536;2022-12-07T08:26:08;4.70;99.90
11609;DHT22;5860;52.018;8.536;2022-12-07T08:28:35;4.80;99.90
11609;DHT22;5860;52.018;8.536;2022-12-07T08:31:05;4.90;99.90
11609;DHT22;5860;52.018;8.536;2022-12-07T08:33:32;5.10;99.90
11609;DHT22;5860;52.018;8.536;2022-12-07T08:36:17;5.20;99.90
11609;DHT22;5860;52.018;8.536;2022-12-07T08:38:45;5.00;99.90
11609;DHT22;5860;52.018;8.536;2022-12-07T08:41:32;5.00;99.90
11609;DHT22;5860;52.018;8.536;2022-12-07T08:44:02;5.00;99.90
11609;DHT22;5860;52.018;8.536;2022-12-07T08:46:43;5.10;99.90
11609;DHT22;5860;52.018;8.536;2022-12-07T08:49:19;5.10;99.90
11609;DHT22;5860;52.018;8.536;2022-12-07T08:51:47;5.20;99.90
11609;DHT22;5860;52.018;8.536;2022-12-07T08:54:17;5.20;99.90
11609;DHT22;5860;52.018;8.536;2022-12-07T08:56:46;5.30;99.90
11609;DHT22;5860;52.018;8.536;2022-12-07T08:59:20;5.10;99.90
11609;DHT22;5860;52.018;8.536;2022-12-07T09:01:47;5.00;99.90
11609;DHT22;5860;52.018;8.536;2022-12-07T09:04:14;4.90;99.90
11609;DHT22;5860;52.018;8.536;2022-12-07T09:06:42;4.90;99.90
11609;DHT22;5860;52.018;8.536;2022-12-07T09:09:13;4.90;99.90
11609;DHT22;5860;52.018;8.536;2022-12-07T09:11:40;4.80;99.90
11609;DHT22;5860;52.018;8.536;2022-12-07T09:14:07;4.80;99.90
11609;DHT22;5860;52.018;8.536;2022-12-07T09:16:35;4.90;99.90
11609;DHT22;5860;52.018;8.536;2022-12-07T09:19:02;4.80;99.90
11609;DHT22;5860;52.018;8.536;2022-12-07T09:21:33;5.00;99.90
11609;DHT22;5860;52.018;8.536;2022-12-07T09:24:03;5.10;99.90
11609;DHT22;5860;52.018;8.536;2022-12-07T09:26:30;5.20;99.90
11609;DHT22;5860;52.018;8.536;2022-12-07T09:28:57;5.30;99.90
11609;DHT22;5860;52.018;8.536;2022-12-07T09:31:24;5.20;99.90
11609;DHT22;5860;52.018;8.536;2022-12-07T09:33:59;5.30;99.90
11609;DHT22;5860;52.018;8.536;2022-12-07T09:36:28;5.40;99.90
11609;DHT22;5860;52.018;8.536;2022-12-07T09:38:55;5.30;99.90
11609;DHT22;5860;52.018;8.536;2022-12-07T09:41:24;5.30;99.90
11609;DHT22;5860;52.018;8.536;2022-12-07T09:43:53;5.30;99.90
11609;DHT22;5860;52.018;8.536;2022-12-07T09:46:23;5.30;99.90
11609;DHT22;5860;52.018;8.536;2022-12-07T09:48:50;5.30;99.90
11609;DHT22;5860;52.018;8.536;2022-12-07T09:51:20;5.30;99.90
11609;DHT22;5860;52.018;8.536;2022-12-07T09:53:52;5.40;99.90
11609;DHT22;5860;52.018;8.536;2022-12-07T09:56:22;5.30;99.90
11609;DHT22;5860;52.018;8.536;2022-12-07T09:58:58;5.30;99.90
11609;DHT22;5860;52.018;8.536;2022-12-07T10:01:31;5.30;99.90
11609;DHT22;5860;52.018;8.536;2022-12-07T10:04:25;5.20;99.90
11609;DHT22;5860;52.018;8.536;2022-12-07T10:06:52;5.20;99.90
11609;DHT22;5860;52.018;8.536;2022-12-07T10:09:21;5.20;99.90
11609;DHT22;5860;52.018;8.536;2022-12-07T10:12:06;5.30;99.90
11609;DHT22;5860;52.018;8.536;2022-12-07T10:14:37;5.40;99.90
11609;DHT22;5860;52.018;8.536;2022-12-07T10:17:31;5.40;99.90
11609;DHT22;5860;52.018;8.536;2022-12-07T10:20:28;5.40;99.90
11609;DHT22;5860;52.018;8.536;2022-12-07T10:23:04;5.50;99.90
11609;DHT22;5860;52.018;8.536;2022-12-07T10:25:35;5.60;99.90
11609;DHT22;5860;52.018;8.536;2022-12-07T10:28:16;5.50;99.90
11609;DHT22;5860;52.018;8.536;2022-12-07T10:31:00;5.50;99.90
11609;DHT22;5860;52.018;8.536;2022-12-07T10:33:55;5.60;99.90
11609;DHT22;5860;52.018;8.536;2022-12-07T10:39:12;5.60;99.90
11609;DHT22;5860;52.018;8.536;2022-12-07T10:41:58;5.50;99.90
11609;DHT22;5860;52.018;8.536;2022-12-07T10:44:31;5.60;99.90
11609;DHT22;5860;52.018;8.536;2022-12-07T11:00:28;5.80;99.90
11609;DHT22;5860;52.018;8.536;2022-12-07T11:03:17;5.80;99.90
11609;DHT22;5860;52.018;8.536;2022-12-07T11:06:02;5.80;99.90
11609;DHT22;5860;52.018;8.536;2022-12-07T11:08:55;5.90;99.90
11609;DHT22;5860;52.018;8.536;2022-12-07T11:11:38;5.90;99.90
11609;DHT22;5860;52.018;8.536;2022-12-07T11:14:31;5.90;99.90
11609;DHT22;5860;52.018;8.536;2022-12-07T11:17:10;5.90;99.90
11609;DHT22;5860;52.018;8.536;2022-12-07T11:30:57;6.00;99.90
11609;DHT22;5860;52.018;8.536;2022-12-07T11:36:47;6.00;99.90
11609;DHT22;5860;52.018;8.536;2022-12-07T11:39:25;6.10;99.90
11609;DHT22;5860;52.018;8.536;2022-12-07T11:42:02;6.00;99.90
11609;DHT22;5860;52.018;8.536;2022-12-07T11:44:34;6.00;99.90
11609;DHT22;5860;52.018;8.536;2022-12-07T11:47:10;6.00;99.90
11609;DHT22;5860;52.018;8.536;2022-12-07T11:49:44;6.10;99.90
11609;DHT22;5860;52.018;8.536;2022-12-07T11:52:20;6.20;99.90
11609;DHT22;5860;52.018;8.536;2022-12-07T11:54:50;6.00;99.90
11609;DHT22;5860;52.018;8.536;2022-12-07T11:57:32;6.00;99.90
11609;DHT22;5860;52.018;8.536;2022-12-07T12:00:04;6.00;99.90
11609;DHT22;5860;52.018;8.536;2022-12-07T12:02:48;6.00;99.90
11609;DHT22;5860;52.018;8.536;2022-12-07T12:05:21;6.10;99.90
11609;DHT22;5860;52.018;8.536;2022-12-07T12:08:18;6.20;99.90
11609;DHT22;5860;52.018;8.536;2022-12-07T12:23:07;6.30;99.90
11609;DHT22;5860;52.018;8.536;2022-12-07T12:25:47;6.40;99.90
11609;DHT22;5860;52.018;8.536;2022-12-07T12:31:12;6.30;99.90
11609;DHT22;5860;52.018;8.536;2022-12-07T12:33:54;6.40;99.90
11609;DHT22;5860;52.018;8.536;2022-12-07T12:36:26;6.40;99.90
11609;DHT22;5860;52.018;8.536;2022-12-07T12:39:11;6.30;99.90
11609;DHT22;5860;52.018;8.536;2022-12-07T12:47:38;6.30;99.90
11609;DHT22;5860;52.018;8.536;2022-12-07T12:50:14;6.30;99.90
11609;DHT22;5860;52.018;8.536;2022-12-07T12:55:17;6.40;99.90
11609;DHT22;5860;52.018;8.536;2022-12-07T13:00:46;6.20;99.90
11609;DHT22;5860;52.018;8.536;2022-12-07T13:03:27;6.40;99.90
11609;DHT22;5860;52.018;8.536;2022-12-07T13:08:44;6.30;99.90
11609;DHT22;5860;52.018;8.536;2022-12-07T13:11:20;6.40;99.90
11609;DHT22;5860;52.018;8.536;2022-12-07T13:13:52;6.40;99.90
11609;DHT22;5860;52.018;8.536;2022-12-07T13:18:48;6.30;99.90
11609;DHT22;5860;52.018;8.536;2022-12-07T13:31:49;6.00;99.90
11609;DHT22;5860;52.018;8.536;2022-12-07T13:34:34;6.00;99.90
11609;DHT22;5860;52.018;8.536;2022-12-07T13:37:23;5.90;99.90
11609;DHT22;5860;52.018;8.536;2022-12-07T13:39:57;5.90;99.90
11609;DHT22;5860;52.018;8.536;2022-12-07T13:42:28;5.90;99.90
11609;DHT22;5860;52.018;8.536;2022-12-07T13:44:58;5.90;99.90
11609;DHT22;5860;52.018;8.536;2022-12-07T13:47:36;6.00;99.90
11609;DHT22;5860;52.018;8.536;2022-12-07T13:50:31;6.00;99.90
11609;DHT22;5860;52.018;8.536;2022-12-07T13:53:00;6.00;99.90
11609;DHT22;5860;52.018;8.536;2022-12-07T13:55:29;6.10;99.90
11609;DHT22;5860;52.018;8.536;2022-12-07T13:57:56;6.00;99.90
11609;DHT22;5860;52.018;8.536;2022-12-07T14:00:26;6.00;99.90
11609;DHT22;5860;52.018;8.536;2022-12-07T14:02:59;6.00;99.90
11609;DHT22;5860;52.018;8.536;2022-12-07T14:08:20;5.90;99.90
11609;DHT22;5860;52.018;8.536;2022-12-07T14:15:52;5.80;99.90
11609;DHT22;5860;52.018;8.536;2022-12-07T14:18:40;5.80;99.90
11609;DHT22;5860;52.018;8.536;2022-12-07T14:21:18;5.80;99.90
11609;DHT22;5860;52.018;8.536;2022-12-07T14:26:40;5.60;99.90
11609;DHT22;5860;52.018;8.536;2022-12-07T14:31:47;5.60;99.90
11609;DHT22;5860;52.018;8.536;2022-12-07T14:34:14;5.60;99.90
11609;DHT22;5860;52.018;8.536;2022-12-07T14:36:41;5.50;99.90
11609;DHT22;5860;52.018;8.536;2022-12-07T14:39:08;5.50;99.90
11609;DHT22;5860;52.018;8.536;2022-12-07T14:41:39;5.40;99.90
11609;DHT22;5860;52.018;8.536;2022-12-07T14:44:22;5.40;99.90
11609;DHT22;5860;52.018;8.536;2022-12-07T14:46:55;5.40;99.90
11609;DHT22;5860;52.018;8.536;2022-12-07T14:49:42;5.40;99.90
11609;DHT22;5860;52.018;8.536;2022-12-07T14:52:15;5.40;99.90
11609;DHT22;5860;52.018;8.536;2022-12-07T14:55:03;5.40;99.90
11609;DHT22;5860;52.018;8.536;2022-12-07T14:57:30;5.40;99.90
11609;DHT22;5860;52.018;8.536;2022-12-07T14:59:58;5.40;99.90
11609;DHT22;5860;52.018;8.536;2022-12-07T15:02:25;5.40;99.90
11609;DHT22;5860;52.018;8.536;2022-12-07T15:04:53;5.40;99.90
11609;DHT22;5860;52.018;8.536;2022-12-07T15:07:21;5.40;99.90
11609;DHT22;5860;52.018;8.536;2022-12-07T15:09:49;5.40;99.90
11609;DHT22;5860;52.018;8.536;2022-12-07T15:12:16;5.40;99.90
11609;DHT22;5860;52.018;8.536;2022-12-07T15:14:43;5.40;99.90
11609;DHT22;5860;52.018;8.536;2022-12-07T15:17:11;5.40;99.90
11609;DHT22;5860;52.018;8.536;2022-12-07T15:19:55;5.40;99.90
11609;DHT22;5860;52.018;8.536;2022-12-07T15:22:22;5.40;99.90
11609;DHT22;5860;52.018;8.536;2022-12-07T15:24:49;5.40;99.90
11609;DHT22;5860;52.018;8.536;2022-12-07T15:27:16;5.40;99.90
11609;DHT22;5860;52.018;8.536;2022-12-07T15:29:43;5.30;99.90
11609;DHT22;5860;52.018;8.536;2022-12-07T15:32:10;5.40;99.90
11609;DHT22;5860;52.018;8.536;2022-12-07T15:34:37;5.40;99.90
11609;DHT22;5860;52.018;8.536;2022-12-07T15:37:07;5.30;99.90
11609;DHT22;5860;52.018;8.536;2022-12-07T15:39:36;5.30;99.90
11609;DHT22;5860;52.018;8.536;2022-12-07T15:42:04;5.30;99.90
11609;DHT22;5860;52.018;8.536;2022-12-07T15:44:31;5.30;99.90
11609;DHT22;5860;52.018;8.536;2022-12-07T15:47:16;5.30;99.90
11609;DHT22;5860;52.018;8.536;2022-12-07T15:49:43;5.20;99.90
11609;DHT22;5860;52.018;8.536;2022-12-07T15:52:10;5.30;99.90
11609;DHT22;5860;52.018;8.536;2022-12-07T15:54:37;5.30;99.90
11609;DHT22;5860;52.018;8.536;2022-12-07T15:57:04;5.30;99.90
11609;DHT22;5860;52.018;8.536;2022-12-07T15:59:32;5.30;99.90
11609;DHT22;5860;52.018;8.536;2022-12-07T16:01:59;5.30;99.90
11609;DHT22;5860;52.018;8.536;2022-12-07T16:04:27;5.30;99.90
11609;DHT22;5860;52.018;8.536;2022-12-07T16:06:56;5.30;99.90
11609;DHT22;5860;52.018;8.536;2022-12-07T16:09:23;5.30;99.90
11609;DHT22;5860;52.018;8.536;2022-12-07T16:11:50;5.30;99.90
11609;DHT22;5860;52.018;8.536;2022-12-07T16:14:17;5.20;99.90
11609;DHT22;5860;52.018;8.536;2022-12-07T16:16:44;4.50;99.90
11609;DHT22;5860;52.018;8.536;2022-12-07T16:19:11;4.00;99.90
11609;DHT22;5860;52.018;8.536;2022-12-07T16:21:39;3.70;99.90
11609;DHT22;5860;52.018;8.536;2022-12-07T16:24:07;3.50;99.90
11609;DHT22;5860;52.018;8.536;2022-12-07T16:26:35;3.40;99.90
11609;DHT22;5860;52.018;8.536;2022-12-07T16:29:01;3.30;99.90
11609;DHT22;5860;52.018;8.536;2022-12-07T16:31:29;3.30;99.90
11609;DHT22;5860;52.018;8.536;2022-12-07T16:33:57;3.50;99.90
11609;DHT22;5860;52.018;8.536;2022-12-07T16:36:25;3.40;99.90
11609;DHT22;5860;52.018;8.536;2022-12-07T16:39:14;3.60;99.90
11609;DHT22;5860;52.018;8.536;2022-12-07T16:41:41;3.90;99.90
11609;DHT22;5860;52.018;8.536;2022-12-07T16:44:11;4.00;99.90
11609;DHT22;5860;52.018;8.536;2022-12-07T16:46:39;4.20;99.90
11609;DHT22;5860;52.018;8.536;2022-12-07T16:49:06;4.30;99.90
11609;DHT22;5860;52.018;8.536;2022-12-07T16:51:34;4.40;99.90
11609;DHT22;5860;52.018;8.536;2022-12-07T16:54:03;4.50;99.90
11609;DHT22;5860;52.018;8.536;2022-12-07T16:56:30;4.50;99.90
11609;DHT22;5860;52.018;8.536;2022-12-07T16:58:58;4.50;99.90
11609;DHT22;5860;52.018;8.536;2022-12-07T17:01:25;4.60;99.90
11609;DHT22;5860;52.018;8.536;2022-12-07T17:03:56;4.60;99.90
11609;DHT22;5860;52.018;8.536;2022-12-07T17:06:25;4.50;99.90
11609;DHT22;5860;52.018;8.536;2022-12-07T17:08:54;4.60;99.90
11609;DHT22;5860;52.018;8.536;2022-12-07T17:11:26;4.60;99.90
11609;DHT22;5860;52.018;8.536;2022-12-07T17:13:53;4.70;99.90
11609;DHT22;5860;52.018;8.536;2022-12-07T17:16:39;4.70;99.90
11609;DHT22;5860;52.018;8.536;2022-12-07T17:19:08;4.70;99.90
11609;DHT22;5860;52.018;8.536;2022-12-07T17:21:36;4.60;99.90
11609;DHT22;5860;52.018;8.536;2022-12-07T17:24:05;4.60;99.90
11609;DHT22;5860;52.018;8.536;2022-12-07T17:26:33;4.60;99.90
11609;DHT22;5860;52.018;8.536;2022-12-07T17:29:03;4.60;99.90
11609;DHT22;5860;52.018;8.536;2022-12-07T17:31:30;4.70;99.90
11609;DHT22;5860;52.018;8.536;2022-12-07T17:33:59;4.60;99.90
11609;DHT22;5860;52.018;8.536;2022-12-07T17:36:28;4.60;99.90
11609;DHT22;5860;52.018;8.536;2022-12-07T17:38:55;4.60;99.90
11609;DHT22;5860;52.018;8.536;2022-12-07T17:41:27;4.60;99.90
11609;DHT22;5860;52.018;8.536;2022-12-07T17:44:15;4.70;99.90
11609;DHT22;5860;52.018;8.536;2022-12-07T17:46:44;4.60;99.90
11609;DHT22;5860;52.018;8.536;2022-12-07T17:49:11;4.60;99.90
11609;DHT22;5860;52.018;8.536;2022-12-07T17:51:39;4.60;99.90
11609;DHT22;5860;52.018;8.536;2022-12-07T17:54:24;4.70;99.90
11609;DHT22;5860;52.018;8.536;2022-12-07T17:56:51;4.70;99.90
11609;DHT22;5860;52.018;8.536;2022-12-07T17:59:18;4.80;99.90
11609;DHT22;5860;52.018;8.536;2022-12-07T18:01:45;4.70;99.90
11609;DHT22;5860;52.018;8.536;2022-12-07T18:04:12;4.70;99.90
11609;DHT22;5860;52.018;8.536;2022-12-07T18:06:39;4.80;99.90
11609;DHT22;5860;52.018;8.536;2022-12-07T18:09:07;4.80;99.90
11609;DHT22;5860;52.018;8.536;2022-12-07T18:11:34;4.90;99.90
11609;DHT22;5860;52.018;8.536;2022-12-07T18:14:02;4.80;99.90
11609;DHT22;5860;52.018;8.536;2022-12-07T18:16:30;4.80;99.90
11609;DHT22;5860;52.018;8.536;2022-12-07T18:19:00;4.80;99.90
11609;DHT22;5860;52.018;8.536;2022-12-07T18:21:28;4.80;99.90
11609;DHT22;5860;52.018;8.536;2022-12-07T18:23:58;4.70;99.90
11609;DHT22;5860;52.018;8.536;2022-12-07T18:26:27;4.80;99.90
11609;DHT22;5860;52.018;8.536;2022-12-07T18:28:54;4.80;99.90
11609;DHT22;5860;52.018;8.536;2022-12-07T18:31:21;4.80;99.90